GCGM/GMZ METAR and TAF weather

Enter ICAO airport designator
Station Type Date Time Source
GCGM METAR 2021/01/17 18:30 UTC NOAA

GCGM 171830Z AUTO 10004KT 070V130 CAVOK 18/11 Q1025 RMK R09/08004KT 030V180 ARP/11005KT 070V140


Station Type Date Time Source
GCGM Decoded METAR 2021/01/17 18:30 UTC NOAA

Station name not available
Jan 17, 2021 - 01:30 PM EST / 2021.01.17 1830 UTC
Wind: from the E (100 degrees) at 5 MPH (4 KT) (direction variable):0
Visibility: greater than 7 mile(s):0
Temperature: 64 F (18 C)
Dew Point: 51 F (11 C)
Relative Humidity: 63%
Pressure (altimeter): 30.27 in. Hg (1025 hPa)
ob: GCGM 171830Z AUTO 10004KT 070V130 CAVOK 18/11 Q1025 RMK R09/08004KT 030V180 ARP/11005KT 070V140
cycle: 18

Station Type Date Time Source
GCGM TAF 2021/01/17 15:00 UTC NOAA

TAF GCGM 171400Z 1715/1815 22006KT 9999 FEW030 TX21/1814Z TN14/1807Z

Example: see airport list